LiveATC.Net - Listen to live air traffic control over the Internet!


ICAO: KBMI  IATA: BMI   Airport: Central Illinois Regional Airport at Bloomington-Normal
City: Bloomington/Normal   State/Province: Illinois
Country: United States   Continent: North America
KBMI METAR Weather: KBMI 201056Z AUTO 34012KT 10SM CLR M15/M18 A3050 RMK AO2 SLP347 T11501183
KBMI Flight Activity (FlightAware)
KBMI Airport Info   (iFlightPlanner)
KBMI VFR Sectional Chart   (iFlightPlanner) 
KBMI IFR Low Altitude Chart   (iFlightPlanner) 
KBMI IFR High Altitude Chart   (iFlightPlanner) 

ZAU Sector 45 Roberts High
Feed Status: UP   Listeners: 1
Listen in your browser - HTML5 player (in browser, HTML5)
Click here to listen with your own player (launches your MP3 player)
Archive Access: ZAU Sector 45 Roberts High
FacilityFrequency
Chicago Center (Roberts High Sector 45)124.800
Chicago Center (Roberts High Sector 45)134.025

ICAO: KDBQ  IATA: DBQ   Airport: Dubuque Regional Airport
City: Dubuque   State/Province: Iowa
Country: United States   Continent: North America
KDBQ METAR Weather: KDBQ 201053Z AUTO 34011KT 10SM CLR M19/M23 A3054 RMK AO2 SLP374 T11941228
KDBQ Flight Activity (FlightAware)
KDBQ Airport Info   (iFlightPlanner)
KDBQ VFR Sectional Chart   (iFlightPlanner) 
KDBQ IFR Low Altitude Chart   (iFlightPlanner) 
KDBQ IFR High Altitude Chart   (iFlightPlanner) 

ZAU Sector 63 #1
Feed Status: UP   Listeners: 0
Listen in your browser - HTML5 player (in browser, HTML5)
Click here to listen with your own player (launches your MP3 player)
Archive Access: ZAU Sector 63 #1
FacilityFrequency
Chicago Center (Sector 63 Dubuque Low SFC to FL230)133.950

ZAU Sector 63 #2
Feed Status: UP   Listeners: 0
Listen in your browser - HTML5 player (in browser, HTML5)
Click here to listen with your own player (launches your MP3 player)
Archive Access: ZAU Sector 63 #2
FacilityFrequency
Chicago Center (Sector 63 Dubuque Low SFC to FL230)133.950

ZAU Sector 75 #1
Feed Status: UP   Listeners: 0
Listen in your browser - HTML5 player (in browser, HTML5)
Click here to listen with your own player (launches your MP3 player)
Archive Access: ZAU Sector 75 #1
FacilityFrequency
Chicago Center (Sector 75 COTON Hi FL240-320)127.775

ZAU Sector 75 #2
Feed Status: UP   Listeners: 0
Listen in your browser - HTML5 player (in browser, HTML5)
Click here to listen with your own player (launches your MP3 player)
Archive Access: ZAU Sector 75 #2
FacilityFrequency
Chicago Center (Sector 75 COTON Hi FL240-320)118.425
Chicago Center (Sector 75 COTON Hi FL240-320)127.775

ZAU Sector 75/76
Feed Status: UP   Listeners: 0
Listen in your browser - HTML5 player (in browser, HTML5)
Click here to listen with your own player (launches your MP3 player)
Archive Access: ZAU Sector 75/76
FacilityFrequency
Chicago Center (Sector 75 COTON Hi FL240-320)118.425
Chicago Center (Sector 75 COTON Hi FL240-320)127.775
Chicago Center (Sector 76 Arlington Hi FL330-360)125.225

ZAU Sector 76 #1
Feed Status: UP   Listeners: 0
Listen in your browser - HTML5 player (in browser, HTML5)
Click here to listen with your own player (launches your MP3 player)
Archive Access: ZAU Sector 76 #1
FacilityFrequency
Chicago Center (Sector 76 Arlington Hi FL330-360)125.225

ZAU Sector 76 #2
Feed Status: UP   Listeners: 0
Listen in your browser - HTML5 player (in browser, HTML5)
Click here to listen with your own player (launches your MP3 player)
Archive Access: ZAU Sector 76 #2
FacilityFrequency
Chicago Center (Sector 76 Arlington Hi FL330-360)125.225

ICAO: KFWA  IATA: FWA   Airport: Fort Wayne International Airport
City: Fort Wayne   State/Province: Indiana
Country: United States   Continent: North America
KFWA METAR Weather: KFWA 201054Z 35005KT 10SM FEW019 SCT025 SCT049 M07/M11 A3036 RMK AO2 SNB06E30 SLP294 P0000 T10721106
KFWA Flight Activity (FlightAware)
KFWA Webcam:  (Airport Webcams) 
KFWA Airport Info   (iFlightPlanner)
KFWA VFR Sectional Chart   (iFlightPlanner) 
KFWA IFR Low Altitude Chart   (iFlightPlanner) 
KFWA IFR High Altitude Chart   (iFlightPlanner) 

ZAU Sector 33
Feed Status: UP   Listeners: 0
Listen in your browser - HTML5 player (in browser, HTML5)
Click here to listen with your own player (launches your MP3 player)
Archive Access: ZAU Sector 33
FacilityFrequency
Chicago Center (Sector 33 BURBN Super Hi FL350/above)126.325

ZAU Sector 36
Feed Status: UP   Listeners: 0
Listen in your browser - HTML5 player (in browser, HTML5)
Click here to listen with your own player (launches your MP3 player)
Archive Access: ZAU Sector 36
FacilityFrequency
Chicago Center (Sector 36 Fort Wayne Hi FL240-340)124.825

ZAU Sector 37
Feed Status: UP   Listeners: 0
Listen in your browser - HTML5 player (in browser, HTML5)
Click here to listen with your own player (launches your MP3 player)
Archive Access: ZAU Sector 37
FacilityFrequency
Chicago Center (Sector 37 Wolf Lake Low SFC to FL230)119.850

ICAO: KGRR  IATA: GRR   Airport: Gerald R. Ford International Airport
City: Grand Rapids   State/Province: Michigan
Country: United States   Continent: North America
KGRR METAR Weather: KGRR 201053Z 36007KT 10SM OVC035 M09/M14 A3039 RMK AO2 SLP307 T10891144
KGRR Flight Activity (FlightAware)
KGRR Webcam:  
KGRR Airport Info   (iFlightPlanner)
KGRR VFR Sectional Chart   (iFlightPlanner) 
KGRR IFR Low Altitude Chart   (iFlightPlanner) 
KGRR IFR High Altitude Chart   (iFlightPlanner) 

ZAU Sector 22
Feed Status: UP   Listeners: 0
Listen in your browser - HTML5 player (in browser, HTML5)
Click here to listen with your own player (launches your MP3 player)
Archive Access: ZAU Sector 22
FacilityFrequency
Chicago Center (Sector 22 Sparta Low SFC to FL190)128.500

ZAU Sector 25
Feed Status: UP   Listeners: 0
Listen in your browser - HTML5 player (in browser, HTML5)
Click here to listen with your own player (launches your MP3 player)
Archive Access: ZAU Sector 25
FacilityFrequency
Chicago Center (Sector 25 Pullman Hi FL200-320)126.125

ICAO: KMKG  IATA: MKG   Airport: Muskegon County Airport
City: Muskegon   State/Province: Michigan
Country: United States   Continent: North America
KMKG METAR Weather: KMKG 201055Z 35009KT 4SM -SN SCT021 OVC034 M08/M13 A3043 RMK AO2 SNB33 SLP315 P0000 T10831133
KMKG Flight Activity (FlightAware)
KMKG Webcam:  (Airport Webcams) 
KMKG Airport Info   (iFlightPlanner)
KMKG VFR Sectional Chart   (iFlightPlanner) 
KMKG IFR Low Altitude Chart   (iFlightPlanner) 
KMKG IFR High Altitude Chart   (iFlightPlanner) 

ZAU Sectors 24/25
Feed Status: UP   Listeners: 0
Listen in your browser - HTML5 player (in browser, HTML5)
Click here to listen with your own player (launches your MP3 player)
Archive Access: ZAU Sectors 24/25
FacilityFrequency
Chicago Center (Sector 24 Freemont Hi FL200-330)132.275
Chicago Center (Sector 25 Pullman Hi FL200-320)126.125

ICAO: KORD  IATA: ORD   Airport: Chicago O'Hare International Airport
City: Chicago   State/Province: Illinois
Country: United States   Continent: North America
KORD METAR Weather: KORD 201051Z 32008G18KT 10SM FEW030 M13/M19 A3048 RMK AO2 SLP336 T11331194
KORD Flight Activity (FlightAware)
KORD Webcam:  
KORD Airport Info   (iFlightPlanner)
KORD VFR Sectional Chart   (iFlightPlanner) 
KORD IFR Low Altitude Chart   (iFlightPlanner) 
KORD IFR High Altitude Chart   (iFlightPlanner) 

ZAU Chicago Center (Sector 74 FARMM Low)
Feed Status: UP   Listeners: 0
Listen in your browser - HTML5 player (in browser, HTML5)
Click here to listen with your own player (launches your MP3 player)
Archive Access: ZAU Chicago Center (Sector 74 FARMM Low)
FacilityFrequency
Chicago Center (Sector 74 FARMM Low)133.350

ZAU Chicago Center (Sector 81 CRIBB Low)
Feed Status: UP   Listeners: 0
Listen in your browser - HTML5 player (in browser, HTML5)
Click here to listen with your own player (launches your MP3 player)
Archive Access: ZAU Chicago Center (Sector 81 CRIBB Low)
FacilityFrequency
Chicago Center (Sector 81 CRIBB Low)120.350

ICAO: KOSH  IATA: OSH   Airport: Wittman Regional Airport
City: Oshkosh   State/Province: Wisconsin
Country: United States   Continent: North America
KOSH METAR Weather: KOSH 201053Z AUTO 30006KT 10SM CLR M18/M23 A3050 RMK AO2 SLP363 T11831228
KOSH Flight Activity (FlightAware)
KOSH Webcam:  (Airport Webcams) 
KOSH Airport Info   (iFlightPlanner)
KOSH VFR Sectional Chart   (iFlightPlanner) 
KOSH IFR Low Altitude Chart   (iFlightPlanner) 
KOSH IFR High Altitude Chart   (iFlightPlanner) 

ZAU Chicago Center (Lone Rock, Low)
Feed Status: DOWN
Last heard on: 2021-12-06 20:50:22 (44 days 14 hours 19 minutes ago)
Archive Access: ZAU Chicago Center (Lone Rock, Low)
FacilityFrequency
Chicago Center (Lone Rock, Low)132.100
Chicago Center (Lone Rock, Low)133.300

ICAO: KOTM  IATA: OTM   Airport: Ottumwa Regional Airport
City: Ottumwa   State/Province: Iowa
Country: United States   Continent: North America
KOTM METAR Weather: KOTM 201053Z AUTO 32010KT 10SM CLR M21/M23 A3064 RMK AO2 SLP399 T12061233 $
KOTM Flight Activity (FlightAware)
KOTM Webcam:  
KOTM Airport Info   (iFlightPlanner)
KOTM VFR Sectional Chart   (iFlightPlanner) 
KOTM IFR Low Altitude Chart   (iFlightPlanner) 
KOTM IFR High Altitude Chart   (iFlightPlanner) 

KOTM Del/Twr/App/Center
Feed Status: UP   Listeners: 2
Listen in your browser - HTML5 player (in browser, HTML5)
Click here to listen with your own player (launches your MP3 player)
Archive Access: KOTM Del/Twr/App/Center
FacilityFrequency
Cedar Rapids Approach119.700
Cedar Rapids Approach134.050
Cedar Rapids Clearance Delivery125.450
Cedar Rapids Tower118.700
Cedar Rapids UNICOM122.950
Chicago Center118.150
Chicago Center (Sector 55 Burlington Low)135.600
Chicago Center (Sector 56 Ottumwa Low SFC to FL230)132.800
Chicago Center (Sector 74 FARMM Low)133.350
Chicago Center (Sector 91 Hanna City Super Hi)134.325
Des Moines Approach118.600
Des Moines Approach123.900
Des Moines Approach135.200
Des Moines Tower118.300
Emergency/Guard121.500
Kansas City Center132.600
KIRK Kirksville, MO CTAF122.800
Minneapolis Center118.825
Minneapolis Center (Sector 27 Low)125.650
Minneapolis Center (Sector 30 High)135.775
Ottumwa CTAF/UNICOM123.000
Sponsored by: Kevin Jarvis

ICAO: KRFD  IATA: RFD   Airport: Chicago/Rockford International Airport
City: Rockford   State/Province: Illinois
Country: United States   Continent: North America
KRFD METAR Weather: KRFD 201054Z 34009KT 10SM CLR M15/M21 A3054 RMK AO2 SLP358 T11501206
KRFD Flight Activity (FlightAware)
KRFD Webcam:  
KRFD Airport Info   (iFlightPlanner)
KRFD VFR Sectional Chart   (iFlightPlanner) 
KRFD IFR Low Altitude Chart   (iFlightPlanner) 
KRFD IFR High Altitude Chart   (iFlightPlanner) 

ZAU Sector 92 (HAWKS)
Feed Status: UP   Listeners: 0
Listen in your browser - HTML5 player (in browser, HTML5)
Click here to listen with your own player (launches your MP3 player)
Archive Access: ZAU Sector 92 (HAWKS)
FacilityFrequency
Chicago Center120.375
Chicago Center (Sector 92 HAWKS Hi FL240-320)124.725

NOTICE

Unauthorized use prohibited. See LiveATC.net Terms of Service


Airport/ARTCC Code
Frequency Search
(e.g., 124.400, 128.75)
Site-wide search
 


Browse Feeds
Top 50 Feeds
HF Oceanic Feeds
Coverage Map
Bad Weather Areas

LiveATC FAQ
Offer LiveATC feed
Contact LiveATC.net
Press Inquiries

LiveATC on iPhone
LiveATC on Android

LiveATC Mobile
(Mobile browser)

ATC Audio Archives
Interesting Recordings

LiveATC Forums


Home Page
About LiveATC.net
Make a Donation
Terms of Use
Privacy Policy

Canadian Air Freqs

AIRMETs/SIGMETs

FAA Airport Status
NAS Status
Arrival Demand


Server Software By:
Icecast.org
Liquidsoap